Portada
METAR-TAF:

METAR-TAF

Aeropuertos :

Shimla, India

latitud: 31-04-54N, longitud: 77-04-05E, altitud: 1546 m

METAR: falta

Hora: 12:39 (07:09 UTC)

Pronóstico

El informe se hizo hace 2 horas y 9 minutos, a las 05:00 UTC
Pronóstico válido del 08 a las 06 UTC al 08 a las 15 UTC
Viento 2 kt con dirección variable
Visibilidad: 5000 m
Escasas nubes a una altura de 3000 ft
Nubes dispersas a una altura de 10000 ft
calima
Evolucionando progresivamente
del 08 a las 09 UTC al 08 a las 11 UTC
Viento 6 kt del oeste
Visibilidad: 4000 m
Escasas nubes a una altura de 3500 ft, Cumulonimbus.
calima, tormenta, lluvia ligera

TAF: VISM 080500Z 0806/0815 VRB02KT 5000 HZ FEW030 SCT100 BECMG 0809/0811 26006KT 4000 HZ -TSRA FEW035CB

Observaciones y pronósticos meteorológicos de más de 4000 aeropuertos (mensajes METAR y TAF).

Los puntos amarillos y rojos representan las estaciones disponibles.

Ponga el ratón en el punto deseado para ver el nombre de la estación.

Haga clic para ver las observaciones y los pronósticos meteorológicos.

Para cambiar el mapa : haga clic en los botones verdes con una cruz de color negro para hacer un zoom, en el botón verde con un guión para alejar o en las flechas verdes para mapas adyacentes.


METAR-TAF: